createdAt,value
2018-12-24T00:01:32.595Z,100589.23
2018-12-24T00:04:02.762Z,100584.98
2018-12-24T00:06:33.018Z,100588.41
2018-12-24T00:11:39.845Z,100587.53
2018-12-24T00:14:09.999Z,100598.77
2018-12-24T00:16:40.130Z,100594.40
2018-12-24T00:19:11.296Z,100593.11
2018-12-24T00:21:41.789Z,100586.61
2018-12-24T00:24:12.039Z,100594.87
2018-12-24T00:26:42.513Z,100592.30
2018-12-24T00:29:12.963Z,100585.78
2018-12-24T00:31:43.998Z,100593.56
2018-12-24T00:34:15.104Z,100589.18
2018-12-24T00:36:46.240Z,100598.74
2018-12-24T00:39:16.654Z,100592.27
2018-12-24T00:41:47.175Z,100601.80
2018-12-24T00:44:17.360Z,100600.48
2018-12-24T00:46:47.605Z,100602.59
2018-12-24T00:49:18.376Z,100609.52
2018-12-24T00:51:48.581Z,100614.28
2018-12-24T00:54:18.798Z,100608.24
2018-12-24T00:56:49.309Z,100616.48
2018-12-24T00:59:19.452Z,100625.99
2018-12-24T01:01:50.183Z,100625.14
2018-12-24T01:04:20.354Z,100627.24
2018-12-24T01:06:50.554Z,100631.19
2018-12-24T01:09:20.775Z,100638.09
2018-12-24T01:11:51.404Z,100639.89
2018-12-24T01:14:21.540Z,100649.41
2018-12-24T01:16:51.956Z,100651.53
2018-12-24T01:19:22.429Z,100653.23
2018-12-24T01:21:52.559Z,100665.37
2018-12-24T01:24:22.740Z,100668.39
2018-12-24T01:26:52.966Z,100672.37
2018-12-24T01:29:23.091Z,100677.10
2018-12-24T01:31:53.246Z,100684.06
2018-12-24T01:34:23.762Z,100691.03
2018-12-24T01:36:53.907Z,100691.03
2018-12-24T01:39:43.143Z,100693.59
2018-12-24T01:42:13.266Z,100696.66
2018-12-24T01:44:43.388Z,100701.86
2018-12-24T01:47:13.589Z,100707.50
2018-12-24T01:49:44.039Z,100719.63
2018-12-24T01:52:14.537Z,100717.47
2018-12-24T01:54:45.045Z,100726.95
2018-12-24T01:57:34.281Z,100730.88
2018-12-24T02:00:04.529Z,100737.83
2018-12-24T02:02:53.726Z,100738.23
2018-12-24T02:05:24.330Z,100743.86
2018-12-24T02:07:55.150Z,100752.09
2018-12-24T02:10:25.715Z,100753.39
2018-12-24T02:13:15.174Z,100757.27
2018-12-24T02:16:04.404Z,100766.83
2018-12-24T02:18:34.579Z,100767.24
2018-12-24T02:21:04.794Z,100773.72
2018-12-24T02:23:34.965Z,100784.16
2018-12-24T02:26:05.172Z,100785.83
2018-12-24T02:28:35.413Z,100793.63
2018-12-24T02:31:05.609Z,100798.44
2018-12-24T02:33:36.198Z,100798.84
2018-12-24T02:39:49.003Z,100813.53
2018-12-24T02:42:19.490Z,100817.80
2018-12-24T02:44:49.964Z,100827.32
2018-12-24T02:47:20.272Z,100838.98
2018-12-24T02:49:50.696Z,100843.79
2018-12-24T02:52:21.153Z,100847.23
2018-12-24T02:54:51.376Z,100854.49
2018-12-24T02:57:21.541Z,100864.10
2018-12-24T02:59:51.721Z,100866.67
2018-12-24T03:02:22.570Z,100875.70
2018-12-24T03:04:52.840Z,100879.54
2018-12-24T03:07:23.057Z,100889.97
2018-12-24T03:09:53.610Z,100890.74
2018-12-24T03:12:24.107Z,100902.79
2018-12-24T03:14:54.352Z,100911.49
2018-12-24T03:17:24.967Z,100915.81
2018-12-24T03:19:55.543Z,100917.98
2018-12-24T03:22:26.792Z,100922.69
2018-12-24T03:24:57.308Z,100921.81
2018-12-24T03:27:28.102Z,100920.79
2018-12-24T03:29:58.285Z,100927.24
2018-12-24T03:32:29.124Z,100924.91
2018-12-24T03:35:40.807Z,100926.45
2018-12-24T03:38:10.957Z,100938.31
2018-12-24T03:40:41.327Z,100942.09
2018-12-24T03:43:12.737Z,100955.60
2018-12-24T03:45:43.579Z,100958.83
2018-12-24T03:48:13.319Z,100958.71
2018-12-24T03:50:43.537Z,100979.23
2018-12-24T03:53:13.681Z,100980.58
2018-12-24T03:55:46.526Z,100991.33
2018-12-24T03:58:16.253Z,100991.33
2018-12-24T04:00:46.050Z,100993.37
2018-12-24T04:03:16.124Z,100995.01
2018-12-24T04:05:45.883Z,101005.84
2018-12-24T04:08:15.727Z,101014.10
2018-12-24T04:10:45.856Z,101033.16
2018-12-24T04:13:22.456Z,101037.41
2018-12-24T04:15:47.108Z,101045.05
2018-12-24T04:18:17.185Z,101047.59
2018-12-24T04:20:46.919Z,101051.02
2018-12-24T04:23:16.979Z,101057.41
2018-12-24T04:25:47.417Z,101066.48
2018-12-24T04:28:19.193Z,101066.97
2018-12-24T04:30:52.385Z,101070.02
2018-12-24T04:33:22.134Z,101075.63
2018-12-24T04:35:51.895Z,101088.75
2018-12-24T04:38:23.198Z,101091.41
2018-12-24T04:40:53.334Z,101097.53
2018-12-24T04:43:31.883Z,101101.86
2018-12-24T04:45:54.527Z,101116.41
2018-12-24T04:48:24.536Z,101120.54
2018-12-24T04:50:54.297Z,101137.09
2018-12-24T04:53:24.144Z,101151.31
2018-12-24T04:55:53.976Z,101153.84
2018-12-24T04:58:23.720Z,101159.98
2018-12-24T05:00:53.678Z,101168.47
2018-12-24T05:03:23.390Z,101176.19
2018-12-24T05:05:53.135Z,101178.42
2018-12-24T05:08:22.947Z,101178.42
2018-12-24T05:10:53.018Z,101187.41
2018-12-24T05:13:23.090Z,101191.70
2018-12-24T05:15:53.206Z,101205.07
2018-12-24T05:18:22.962Z,101212.91
2018-12-24T05:20:53.468Z,101212.56
2018-12-24T05:23:23.235Z,101221.20
2018-12-24T05:25:53.274Z,101233.66
2018-12-24T05:28:23.320Z,101241.33
2018-12-24T05:30:53.097Z,101239.28
2018-12-24T05:33:22.854Z,101254.45
2018-12-24T05:35:52.956Z,101264.52
2018-12-24T05:38:23.030Z,101266.09
2018-12-24T05:40:53.123Z,101277.11
2018-12-24T05:43:25.527Z,101286.70
2018-12-24T05:45:55.931Z,101292.23
2018-12-24T05:48:25.888Z,101293.48
2018-12-24T05:50:56.178Z,101305.02
2018-12-24T05:53:26.441Z,101317.58
2018-12-24T05:55:56.544Z,101321.11
2018-12-24T05:58:26.634Z,101331.95
2018-12-24T06:00:56.844Z,101343.44
2018-12-24T06:03:27.228Z,101352.45
2018-12-24T06:05:57.007Z,101361.98
2018-12-24T06:08:27.011Z,101369.42
2018-12-24T06:10:57.371Z,101381.51
2018-12-24T06:13:27.759Z,101383.07
2018-12-24T06:15:57.926Z,101403.33
2018-12-24T06:18:28.388Z,101406.31
2018-12-24T06:20:58.925Z,101430.55
2018-12-24T06:23:29.169Z,101444.73
2018-12-24T06:25:59.307Z,101456.09
2018-12-24T06:28:29.062Z,101468.61
2018-12-24T06:31:03.229Z,101473.66
2018-12-24T06:33:33.386Z,101474.66
2018-12-24T06:36:03.435Z,101482.80
2018-12-24T06:38:35.318Z,101492.20
2018-12-24T06:41:05.443Z,101489.45
2018-12-24T06:43:35.965Z,101504.14
2018-12-24T06:46:06.164Z,101510.52
2018-12-24T06:48:36.573Z,101516.53
2018-12-24T06:51:07.139Z,101530.70
2018-12-24T06:53:38.227Z,101537.02
2018-12-24T06:56:08.618Z,101540.92
2018-12-24T06:58:38.711Z,101549.58
2018-12-24T07:01:08.800Z,101558.66
2018-12-24T07:03:38.884Z,101561.08
2018-12-24T07:06:09.081Z,101559.42
2018-12-24T07:08:39.940Z,101570.61
2018-12-24T07:11:10.381Z,101570.20
2018-12-24T07:13:40.866Z,101585.05
2018-12-24T07:16:11.290Z,101587.55
2018-12-24T07:18:41.434Z,101594.11
2018-12-24T07:21:12.001Z,101601.11
2018-12-24T07:23:42.390Z,101606.63
2018-12-24T07:26:13.951Z,101618.61
2018-12-24T07:28:45.236Z,101619.14
2018-12-24T07:31:17.813Z,101634.84
2018-12-24T07:33:47.768Z,101628.80
2018-12-24T07:36:17.484Z,101638.45
2018-12-24T07:38:47.768Z,101643.52
2018-12-24T07:41:17.784Z,101642.88
2018-12-24T07:43:48.622Z,101655.68
2018-12-24T07:46:21.573Z,101645.44
2018-12-24T07:48:52.118Z,101657.76
2018-12-24T07:51:22.700Z,101676.70
2018-12-24T07:53:52.712Z,101685.59
2018-12-24T07:56:25.474Z,101693.02
2018-12-24T07:58:55.612Z,101697.33
2018-12-24T08:01:25.386Z,101699.91
2018-12-24T08:03:56.115Z,101699.91
2018-12-24T08:06:26.139Z,101720.64
2018-12-24T08:08:56.311Z,101717.30
2018-12-24T08:11:26.144Z,101727.72
2018-12-24T08:13:55.864Z,101741.59
2018-12-24T08:16:25.961Z,101739.48
2018-12-24T08:18:57.407Z,101748.23
2018-12-24T08:21:27.516Z,101753.11
2018-12-24T08:23:58.315Z,101755.52
2018-12-24T08:26:28.679Z,101761.98
2018-12-24T08:28:59.355Z,101766.84
2018-12-24T08:31:29.909Z,101767.86
2018-12-24T08:34:00.205Z,101778.59
2018-12-24T08:36:31.297Z,101790.28
2018-12-24T08:39:01.274Z,101793.76
2018-12-24T08:41:31.121Z,101801.94
2018-12-24T08:44:01.585Z,101801.05
2018-12-24T08:46:31.645Z,101805.50
2018-12-24T08:49:01.769Z,101815.59
2018-12-24T08:51:32.151Z,101816.16
2018-12-24T08:54:01.945Z,101814.38
2018-12-24T08:56:32.443Z,101818.62
2018-12-24T08:59:02.321Z,101823.73
2018-12-24T09:01:32.189Z,101830.28
2018-12-24T09:04:02.396Z,101832.76
2018-12-24T09:06:44.099Z,101839.05
2018-12-24T09:09:24.916Z,101845.70
2018-12-24T09:11:55.478Z,101850.21
2018-12-24T09:14:25.888Z,101858.65
2018-12-24T09:16:57.220Z,101864.09
2018-12-24T09:19:27.079Z,101876.03
2018-12-24T09:21:58.685Z,101878.59
2018-12-24T09:24:28.463Z,101875.70
2018-12-24T09:26:58.305Z,101887.47
2018-12-24T09:29:28.443Z,101903.08
2018-12-24T09:31:59.977Z,101907.81
2018-12-24T09:34:29.718Z,101913.88
2018-12-24T09:36:59.767Z,101921.20
2018-12-24T09:39:30.964Z,101932.89
2018-12-24T09:42:02.635Z,101943.47
2018-12-24T09:44:32.787Z,101944.02
2018-12-24T09:47:04.700Z,101944.02
2018-12-24T09:49:34.868Z,101960.16
2018-12-24T09:52:04.612Z,101959.85
2018-12-24T09:54:34.863Z,101972.09
2018-12-24T09:57:04.653Z,101978.16
2018-12-24T09:59:34.774Z,101978.92
2018-12-24T10:02:04.767Z,101984.67
2018-12-24T10:04:57.022Z,101986.92
2018-12-24T10:07:31.239Z,101981.27
2018-12-24T10:10:01.432Z,101983.64
2018-12-24T10:12:32.396Z,101982.82
2018-12-24T10:15:08.061Z,101985.91
2018-12-24T10:17:34.670Z,101984.03
2018-12-24T10:20:05.873Z,101988.07
2018-12-24T10:22:36.431Z,101979.96
2018-12-24T10:25:07.721Z,101985.44
2018-12-24T10:27:37.563Z,101987.00
2018-12-24T10:30:08.340Z,101991.98
2018-12-24T10:32:38.690Z,101995.11
2018-12-24T10:35:09.238Z,102003.66
2018-12-24T10:37:39.074Z,102002.55
2018-12-24T10:40:14.139Z,102008.76
2018-12-24T10:42:45.190Z,102000.88
2018-12-24T10:45:16.738Z,101991.55
2018-12-24T10:47:46.786Z,102001.36
2018-12-24T10:50:18.782Z,101996.10
2018-12-24T10:52:50.013Z,102009.87
2018-12-24T10:58:01.712Z,102007.84
2018-12-24T11:00:35.146Z,102014.13
2018-12-24T11:03:05.644Z,102027.64
2018-12-24T11:05:53.615Z,102029.91
2018-12-24T11:08:27.004Z,102028.31
2018-12-24T11:10:57.640Z,102033.37
2018-12-24T11:13:30.902Z,102032.30
2018-12-24T11:18:34.481Z,102028.42
2018-12-24T11:21:06.478Z,102019.61
2018-12-24T11:23:36.987Z,102020.20
2018-12-24T11:26:11.203Z,102028.38
2018-12-24T11:31:27.916Z,102043.52
2018-12-24T11:34:29.895Z,102040.08
2018-12-24T11:39:37.148Z,102043.63
2018-12-24T11:42:07.907Z,102038.67
2018-12-24T11:44:59.937Z,102039.82
2018-12-24T11:47:30.835Z,102041.64
2018-12-24T11:50:01.304Z,102032.34
2018-12-24T11:52:36.054Z,102042.08
2018-12-24T11:55:06.826Z,102056.84
2018-12-24T11:57:36.888Z,102050.81
2018-12-24T12:00:07.349Z,102052.78
2018-12-24T12:02:38.675Z,102051.84
2018-12-24T12:05:09.201Z,102059.78
2018-12-24T12:07:39.655Z,102058.81
2018-12-24T12:12:47.263Z,102053.63
2018-12-24T12:15:42.359Z,102053.89
2018-12-24T12:18:07.393Z,102068.96
2018-12-24T12:20:42.464Z,102073.09
2018-12-24T12:23:12.292Z,102072.92
2018-12-24T12:25:42.183Z,102086.34
2018-12-24T12:28:12.864Z,102086.28
2018-12-24T12:30:50.641Z,102082.88
2018-12-24T12:34:08.243Z,102086.80
2018-12-24T12:36:39.050Z,102094.41
2018-12-24T12:39:09.290Z,102098.17
2018-12-24T12:41:39.912Z,102097.06
2018-12-24T12:44:11.278Z,102103.12
2018-12-24T12:46:41.715Z,102104.95
2018-12-24T12:49:11.979Z,102102.77
2018-12-24T12:54:17.751Z,102111.27
2018-12-24T12:56:50.030Z,102105.95
2018-12-24T13:00:56.641Z,102126.44
2018-12-24T13:16:29.932Z,102162.50
2018-12-24T13:19:10.505Z,102163.44
2018-12-24T13:24:33.628Z,102176.30
2018-12-24T13:27:03.492Z,102177.45
2018-12-24T13:29:33.393Z,102169.70
2018-12-24T13:32:03.574Z,102180.30
2018-12-24T13:34:33.976Z,102180.78
2018-12-24T13:37:06.060Z,102186.78
2018-12-24T13:39:36.399Z,102192.66
2018-12-24T13:42:06.371Z,102188.53
2018-12-24T13:44:37.024Z,102188.30
2018-12-24T13:47:07.425Z,102190.64
2018-12-24T13:49:37.331Z,102193.50
2018-12-24T13:52:09.863Z,102188.13
2018-12-24T13:54:40.241Z,102198.12
2018-12-24T13:57:10.310Z,102191.94
2018-12-24T13:59:40.481Z,102190.59
2018-12-24T14:02:10.331Z,102179.22
2018-12-24T14:04:40.121Z,102170.40
2018-12-24T14:07:09.963Z,102171.12
2018-12-24T14:09:40.235Z,102169.39
2018-12-24T14:12:10.406Z,102176.59
2018-12-24T14:14:40.557Z,102180.16
2018-12-24T14:17:10.695Z,102174.00
2018-12-24T14:19:40.474Z,102166.84
2018-12-24T14:22:10.359Z,102154.09
2018-12-24T14:24:40.229Z,102157.28
2018-12-24T14:27:10.441Z,102155.80
2018-12-24T14:29:42.389Z,102154.94
2018-12-24T14:32:12.873Z,102151.69
2018-12-24T14:34:42.625Z,102142.47
2018-12-24T14:37:21.068Z,102134.74
2018-12-24T14:40:00.810Z,102130.20
2018-12-24T14:42:30.871Z,102133.19
2018-12-24T14:45:01.245Z,102143.08
2018-12-24T14:47:31.077Z,102149.41
2018-12-24T14:50:01.357Z,102153.19
2018-12-24T14:52:31.181Z,102155.77
2018-12-24T14:55:01.014Z,102163.01
2018-12-24T14:57:30.798Z,102177.65
2018-12-24T15:00:00.894Z,102184.73
2018-12-24T15:02:31.009Z,102188.62
2018-12-24T15:05:01.089Z,102194.17
2018-12-24T15:07:32.063Z,102214.02
2018-12-24T15:10:02.209Z,102221.66
2018-12-24T15:12:32.791Z,102227.38
2018-12-24T15:15:02.558Z,102225.02
2018-12-24T15:17:32.668Z,102230.95
2018-12-24T15:20:02.759Z,102233.59
2018-12-24T15:22:32.903Z,102232.58
2018-12-24T15:25:05.364Z,102236.95
2018-12-24T15:27:35.516Z,102246.62
2018-12-24T15:30:05.573Z,102249.48
2018-12-24T15:32:36.102Z,102245.33
2018-12-24T15:35:06.621Z,102241.70
2018-12-24T15:37:36.434Z,102249.08
2018-12-24T15:40:06.563Z,102262.16
2018-12-24T15:42:36.817Z,102258.40
2018-12-24T15:45:06.722Z,102246.27
2018-12-24T15:47:37.100Z,102245.81
2018-12-24T15:50:06.907Z,102252.34
2018-12-24T15:52:39.935Z,102265.05
2018-12-24T15:55:10.075Z,102257.52
2018-12-24T15:57:42.684Z,102241.17
2018-12-24T16:00:12.438Z,102227.70
2018-12-24T16:02:42.282Z,102215.17
2018-12-24T16:05:12.216Z,102227.08
2018-12-24T16:07:42.263Z,102227.83
2018-12-24T16:10:12.071Z,102238.64
2018-12-24T16:12:41.859Z,102252.20
2018-12-24T16:15:11.956Z,102266.52
2018-12-24T16:17:43.001Z,102267.59
2018-12-24T16:20:13.119Z,102260.23
2018-12-24T16:22:43.831Z,102259.97
2018-12-24T16:25:13.969Z,102257.37
2018-12-24T16:27:43.765Z,102260.64
2018-12-24T16:30:14.552Z,102264.73
2018-12-24T16:32:44.433Z,102270.41
2018-12-24T16:35:14.583Z,102270.45
2018-12-24T16:37:44.394Z,102285.36
2018-12-24T16:40:14.541Z,102278.83
2018-12-24T16:42:45.201Z,102281.69
2018-12-24T16:45:15.610Z,102279.42
2018-12-24T16:47:45.714Z,102274.55
2018-12-24T16:50:15.482Z,102277.71
2018-12-24T16:52:45.580Z,102280.80
2018-12-24T16:55:15.345Z,102303.98
2018-12-24T16:57:46.739Z,102310.64
2018-12-24T17:00:16.505Z,102302.98
2018-12-24T17:02:46.845Z,102318.22
2018-12-24T17:05:16.713Z,102314.78
2018-12-24T17:07:46.781Z,102315.50
2018-12-24T17:10:16.599Z,102315.64
2018-12-24T17:12:46.700Z,102320.98
2018-12-24T17:15:17.342Z,102318.45
2018-12-24T17:17:47.327Z,102306.73
2018-12-24T17:20:17.674Z,102305.81
2018-12-24T17:22:51.573Z,102299.23
2018-12-24T17:25:23.768Z,102299.77
2018-12-24T17:27:55.910Z,102291.83
2018-12-24T17:30:37.609Z,102309.69
2018-12-24T17:33:07.487Z,102320.09
2018-12-24T17:35:42.030Z,102318.19
2018-12-24T17:38:11.761Z,102315.08
2018-12-24T17:40:44.594Z,102314.84
2018-12-24T17:43:14.919Z,102307.48
2018-12-24T17:45:44.661Z,102301.63
2018-12-24T17:48:15.065Z,102313.69
2018-12-24T17:50:45.268Z,102309.78
2018-12-24T17:53:15.322Z,102313.72
2018-12-24T17:55:45.209Z,102303.12
2018-12-24T17:58:15.499Z,102297.02
2018-12-24T18:00:45.838Z,102297.56
2018-12-24T18:03:15.642Z,102292.08
2018-12-24T18:05:46.367Z,102291.22
2018-12-24T18:08:17.249Z,102286.39
2018-12-24T18:10:47.463Z,102289.27
2018-12-24T18:13:17.193Z,102283.87
2018-12-24T18:15:46.960Z,102286.05
2018-12-24T18:18:16.747Z,102274.91
2018-12-24T18:20:46.776Z,102281.02
2018-12-24T18:23:16.813Z,102272.65
2018-12-24T18:25:46.663Z,102270.66
2018-12-24T18:28:16.819Z,102274.67
2018-12-24T18:30:46.916Z,102265.23
2018-12-24T18:33:17.088Z,102261.91
2018-12-24T18:35:47.717Z,102268.16
2018-12-24T18:38:17.753Z,102262.09
2018-12-24T18:40:47.862Z,102246.82
2018-12-24T18:43:17.712Z,102253.19
2018-12-24T18:45:47.441Z,102257.37
2018-12-24T18:48:18.282Z,102250.20
2018-12-24T18:50:48.422Z,102252.95
2018-12-24T18:53:18.197Z,102255.66
2018-12-24T18:55:48.396Z,102258.34
2018-12-24T18:58:18.722Z,102265.50
2018-12-24T19:00:48.618Z,102278.01
2018-12-24T19:03:18.404Z,102284.00
2018-12-24T19:05:48.596Z,102299.06
2018-12-24T19:08:18.348Z,102308.83
2018-12-24T19:10:51.241Z,102320.70
2018-12-24T19:13:21.046Z,102312.80
2018-12-24T19:15:50.983Z,102321.09
2018-12-24T19:18:20.813Z,102323.66
2018-12-24T19:20:50.558Z,102326.95
2018-12-24T19:23:20.404Z,102323.71
2018-12-24T19:25:50.622Z,102331.95
2018-12-24T19:28:20.814Z,102322.56
2018-12-24T19:30:50.916Z,102322.84
2018-12-24T19:33:21.063Z,102330.74
2018-12-24T19:35:53.146Z,102337.70
2018-12-24T19:38:23.268Z,102337.56
2018-12-24T19:40:54.030Z,102342.94
2018-12-24T19:43:24.260Z,102344.69
2018-12-24T19:45:54.365Z,102344.08
2018-12-24T19:48:24.520Z,102347.24
2018-12-24T19:50:54.273Z,102352.13
2018-12-24T19:53:24.009Z,102362.41
2018-12-24T19:55:55.011Z,102361.41
2018-12-24T19:58:26.183Z,102362.36
2018-12-24T20:00:55.912Z,102363.59
2018-12-24T20:03:26.008Z,102360.46
2018-12-24T20:05:55.772Z,102370.20
2018-12-24T20:08:25.528Z,102368.38
2018-12-24T20:10:55.344Z,102367.84
2018-12-24T20:13:25.727Z,102370.42
2018-12-24T20:15:55.847Z,102371.25
2018-12-24T20:18:26.562Z,102377.92
2018-12-24T20:20:56.460Z,102379.41
2018-12-24T20:23:26.843Z,102377.31
2018-12-24T20:25:56.608Z,102373.47
2018-12-24T20:28:26.414Z,102378.52
2018-12-24T20:30:56.225Z,102377.95
2018-12-24T20:33:26.075Z,102374.06
2018-12-24T20:35:57.816Z,102386.93
2018-12-24T20:38:36.836Z,102384.83
2018-12-24T20:40:59.726Z,102379.79
2018-12-24T20:43:29.498Z,102389.74
2018-12-24T20:45:59.386Z,102397.51
2018-12-24T20:48:29.874Z,102396.13
2018-12-24T20:50:59.831Z,102396.22
2018-12-24T20:53:29.765Z,102394.03
2018-12-24T20:56:00.407Z,102401.66
2018-12-24T20:58:30.870Z,102403.41
2018-12-24T21:01:01.146Z,102399.87
2018-12-24T21:03:31.375Z,102403.09
2018-12-24T21:06:03.869Z,102399.13
2018-12-24T21:08:34.617Z,102407.78
2018-12-24T21:11:04.566Z,102407.23
